Etusivu
METAR-TAF:

METAR-TAF

Lentoasemat :

Cadillac, Michigan, Yhdysvallat

Leveyspiiri: 44-17N, Pituuspiiri: 085-25W, korkeus merenpinnasta: 398 m

Tämänhetkinen sää

Tämä raportti tehtiin 18 minuuttia sitten, kello 20.36 UTC
Tuuli 12 kn lännestä/lounaasta puuskistuen 19 kn:hen
Lämpötila 26°C
Kosteus 45%
Ilmanpaine 1010 hPa
Näkyvyys: 16.1 km
selkeää

METAR: KCAD 252036Z AUTO 25012G19KT 10SM CLR 26/13 A2983 RMK AO2 T02620140

Aika: 16:54 (20:54 UTC)


TAF: puuttuu

Säähavainnot ja -ennusteet yli 4000 lentoasemalta (METAR- ja TAF-raportit).

Käytössä olevat sääasemat on merkitty karttaan keltaisilla ja punaisilla pisteillä.

Aseta hiiri pisteen päälle nähdäksesi sääaseman nimen.

Klikkaa sitten nähdäksesi säähavainnot ja -ennusteet.

Kartan vaihtaminen: klikkaa mustalla rastilla varustettuja vihreitä pisteitä, niin voit zoomata sisään; viivalla varustettua vihreää pistettä, niin voit zoomata ulos tai vihreitä nuolia, niin pääset viereisille kartoille.


METAR-TAF: